Sint-Katelijne-Waver, Belgium
Current Conditions -  °F | °C
As of 1:50 AM on Tuesday 25 Nov 2014 (Local Time) from EBAW Reporting Station
Moderate Fog Moderate Fog  
Wind Chill:   Ceiling: Unl
Heat Index:   Visibility: 0.21mi
Dew Point:   Wind: 1mph
Humidity: 100%   Direction: 30°NNE
Pressure: 30.33"   Gusts: NA
Location:  51.07°N, 4.53°E
Report Text: EBAW 250050Z AUTO 03001KT 0350 R11/0800V1300N R29/0800VP2000U FZFG NCD 00/M00 Q1027
Loading
Personal Weather Stations






























Interactive Weather Map New forecast layout! Learn more

10-Day Weather Forecast

Advertisements
Track Severe Weather on mobile